Time;durP1;ratioP1;P1;durP2;ratioP2;P2;SDS_P1;SDS_P2;PMS_P1;PMS_P2;Temp;Humidity;BMP_temperature;BMP_pressure;BME280_temperature;BME280_humidity;BME280_pressure;Samples;Min_cycle;Max_cycle;Signal;HPM_P1;HPM_P2
2022/06/18 00:00:50;;;;;;;4.28;1.25;;;;;;;20.41;100.00;100174.28;7399252;19;20011;-87
2022/06/18 00:03:18;;;;;;;5.72;1.40;;;;;;;20.35;100.00;100170.75;7399588;19;20007;-87
2022/06/18 00:05:46;;;;;;;1.90;0.90;;;;;;;20.26;100.00;100165.47;7395931;19;20014;-87
2022/06/18 00:08:17;;;;;;;3.33;0.75;;;;;;;20.18;100.00;100173.03;7397637;19;20468;-87
2022/06/18 00:10:43;;;;;;;3.60;0.70;;;;;;;20.16;100.00;100164.31;7400540;19;20015;-86
2022/06/18 00:16:01;;;;;;;7.53;1.33;;;;;;;20.03;100.00;100159.31;7397204;19;20029;-86
2022/06/18 00:18:27;;;;;;;2.55;0.77;;;;;;;19.96;100.00;100167.66;7395422;19;20018;-87
2022/06/18 00:20:54;;;;;;;4.25;1.35;;;;;;;19.89;100.00;100162.59;7396788;19;20483;-87
2022/06/18 00:23:20;;;;;;;7.55;2.08;;;;;;;19.86;100.00;100169.31;7397964;19;20113;-87
2022/06/18 00:25:49;;;;;;;8.25;1.95;;;;;;;19.81;100.00;100170.16;7396139;19;20025;-87
2022/06/18 00:28:21;;;;;;;5.18;0.60;;;;;;;19.75;100.00;100170.19;7401359;19;20014;-87
2022/06/18 00:30:49;;;;;;;2.20;0.88;;;;;;;19.73;100.00;100166.41;7396848;19;20010;-87
2022/06/18 00:33:16;;;;;;;2.42;0.77;;;;;;;19.65;100.00;100169.81;7396744;19;20074;-87
2022/06/18 00:35:43;;;;;;;0.90;0.88;;;;;;;19.60;100.00;100173.47;7395006;19;20011;-86
2022/06/18 00:38:15;;;;;;;2.63;0.82;;;;;;;19.52;100.00;100175.34;7400555;19;20464;-87
2022/06/18 00:40:43;;;;;;;6.20;0.60;;;;;;;19.51;100.00;100168.16;7399088;19;20014;-86
2022/06/18 00:43:49;;;;;;;2.42;0.50;;;;;;;19.45;100.00;100167.44;7396636;19;20019;-86
2022/06/18 00:46:23;;;;;;;1.42;0.30;;;;;;;19.39;100.00;100169.56;7396666;19;20098;-86
2022/06/18 00:49:09;;;;;;;3.33;0.70;;;;;;;19.36;100.00;100176.28;7396355;19;20035;-86
2022/06/18 00:51:47;;;;;;;1.05;0.57;;;;;;;19.40;100.00;100173.94;7396916;19;20010;-87
2022/06/18 00:54:25;;;;;;;0.95;0.30;;;;;;;19.35;100.00;100174.75;7397160;19;20019;-86
2022/06/18 00:57:03;;;;;;;1.13;0.45;;;;;;;19.30;100.00;100180.41;7397136;19;20015;-86
2022/06/18 00:59:37;;;;;;;0.55;0.38;;;;;;;19.28;100.00;100174.53;7396235;19;20377;-85
2022/06/18 01:02:03;;;;;;;2.25;0.20;;;;;;;19.28;100.00;100178.13;7395197;19;20018;-87
2022/06/18 01:04:32;;;;;;;1.00;0.43;;;;;;;19.22;100.00;100163.31;7395495;19;20035;-86
2022/06/18 01:07:14;;;;;;;0.88;0.15;;;;;;;19.18;100.00;100157.19;7397144;19;20010;-86
2022/06/18 01:09:43;;;;;;;0.63;0.52;;;;;;;19.20;100.00;100170.75;7396169;19;20078;-86
2022/06/18 01:12:09;;;;;;;0.28;0.10;;;;;;;19.19;100.00;100163.59;7397170;19;20022;-86
2022/06/18 01:14:37;;;;;;;0.40;0.22;;;;;;;19.16;100.00;100165.41;7393882;19;20026;-86
2022/06/18 01:17:04;;;;;;;0.17;0.10;;;;;;;19.10;100.00;100170.31;7395756;19;20003;-85
2022/06/18 01:19:42;;;;;;;0.20;0.10;;;;;;;19.08;100.00;100166.53;7396171;19;20031;-86
2022/06/18 01:22:36;;;;;;;2.53;0.10;;;;;;;19.05;100.00;100159.88;7395585;19;20011;-86
2022/06/18 01:25:06;;;;;;;1.05;0.30;;;;;;;19.01;100.00;100158.63;7394638;19;20042;-86
2022/06/18 01:27:36;;;;;;;0.45;0.10;;;;;;;18.98;100.00;100163.25;7396837;19;20484;-86
2022/06/18 01:30:06;;;;;;;0.50;0.20;;;;;;;18.96;100.00;100163.03;7391856;19;20020;-86
2022/06/18 01:32:34;;;;;;;0.85;0.10;;;;;;;18.95;100.00;100160.72;7395671;19;20014;-86
2022/06/18 01:35:02;;;;;;;0.25;0.10;;;;;;;18.87;100.00;100160.53;7397919;19;20685;-85
2022/06/18 01:37:29;;;;;;;0.30;0.10;;;;;;;18.76;100.00;100166.25;7396280;19;20085;-85
2022/06/18 01:40:04;;;;;;;0.30;0.15;;;;;;;18.79;100.00;100165.22;7393782;19;20022;-85
2022/06/18 01:42:39;;;;;;;2.83;0.15;;;;;;;18.87;100.00;100172.59;7395237;19;20035;-85
2022/06/18 01:45:11;;;;;;;3.25;0.22;;;;;;;18.90;100.00;100173.59;7392595;19;20014;-87
2022/06/18 01:47:52;;;;;;;3.60;1.05;;;;;;;18.84;100.00;100181.34;7395820;19;20073;-86
2022/06/18 01:50:32;;;;;;;0.20;0.20;;;;;;;18.85;100.00;100180.81;7392826;19;20031;-86
2022/06/18 01:53:10;;;;;;;0.20;0.10;;;;;;;18.86;100.00;100184.41;7399179;19;20074;-85
2022/06/18 01:55:47;;;;;;;2.40;0.20;;;;;;;18.86;100.00;100190.06;7392838;19;20491;-86
2022/06/18 01:58:19;;;;;;;5.35;0.75;;;;;;;18.83;100.00;100188.28;7394376;19;20015;-86
2022/06/18 02:00:51;;;;;;;1.52;0.28;;;;;;;18.78;100.00;100186.25;7394187;19;20480;-86
2022/06/18 02:03:18;;;;;;;0.20;0.10;;;;;;;18.84;100.00;100187.00;7392520;19;20049;-85
2022/06/18 02:05:44;;;;;;;0.68;0.17;;;;;;;18.87;100.00;100194.41;7392640;19;20015;-85
2022/06/18 02:08:15;;;;;;;1.75;0.20;;;;;;;18.85;100.00;100191.34;7394238;19;20536;-85
2022/06/18 02:10:49;;;;;;;0.52;0.52;;;;;;;18.88;100.00;100190.28;7393769;19;20018;-85
2022/06/18 02:13:17;;;;;;;0.52;0.17;;;;;;;18.89;100.00;100186.94;7393371;19;20488;-85
2022/06/18 02:15:46;;;;;;;0.20;0.10;;;;;;;18.86;100.00;100187.22;7390916;19;20073;-85
2022/06/18 02:18:15;;;;;;;0.20;0.20;;;;;;;18.89;100.00;100180.53;7393665;19;20011;-86
2022/06/18 02:20:52;;;;;;;0.40;0.30;;;;;;;18.78;100.00;100180.59;7392495;19;20038;-85
2022/06/18 02:23:20;;;;;;;0.90;0.20;;;;;;;18.83;100.00;100182.63;7393605;19;20031;-85
2022/06/18 02:25:47;;;;;;;0.30;0.10;;;;;;;18.84;100.00;100184.91;7391693;19;20030;-84
2022/06/18 02:28:22;;;;;;;2.08;0.63;;;;;;;18.87;100.00;100183.09;7395802;19;20381;-85
2022/06/18 02:30:49;;;;;;;4.65;0.52;;;;;;;18.86;100.00;100187.22;7393958;19;20007;-85
2022/06/18 02:33:51;;;;;;;2.00;0.20;;;;;;;18.86;100.00;100184.41;7392141;19;20011;-85
2022/06/18 02:36:24;;;;;;;3.20;0.55;;;;;;;18.84;100.00;100179.28;7391700;19;20017;-85
2022/06/18 02:39:23;;;;;;;0.43;0.10;;;;;;;18.79;100.00;100197.03;7395482;19;20520;-86
2022/06/18 02:41:50;;;;;;;0.22;0.20;;;;;;;18.86;100.00;100190.06;7391779;19;20014;-85
2022/06/18 02:44:16;;;;;;;2.50;0.80;;;;;;;18.81;100.00;100199.31;7392116;19;20344;-85
2022/06/18 02:46:42;;;;;;;1.08;0.32;;;;;;;18.79;100.00;100199.09;7393876;19;20018;-85
2022/06/18 02:49:12;;;;;;;9.52;0.73;;;;;;;18.78;100.00;100191.88;7392861;19;20026;-85
2022/06/18 02:51:38;;;;;;;0.40;0.10;;;;;;;18.70;100.00;100191.69;7390718;19;20021;-84
2022/06/18 02:54:05;;;;;;;0.70;0.63;;;;;;;18.65;100.00;100194.53;7390742;19;20022;-85
2022/06/18 02:56:32;;;;;;;0.73;0.10;;;;;;;18.62;100.00;100181.50;7390899;19;20010;-85
2022/06/18 02:58:58;;;;;;;2.63;0.55;;;;;;;18.60;100.00;100189.72;7393634;19;20042;-84
2022/06/18 03:01:26;;;;;;;3.95;0.40;;;;;;;18.59;100.00;100191.00;7393572;19;20019;-85
2022/06/18 03:03:56;;;;;;;2.92;0.35;;;;;;;18.56;100.00;100192.06;7391320;19;20010;-85
2022/06/18 03:06:24;;;;;;;0.32;0.32;;;;;;;18.47;100.00;100198.00;7392033;19;20477;-85
2022/06/18 03:08:55;;;;;;;0.73;0.10;;;;;;;18.44;100.00;100201.84;7392016;19;20007;-85
2022/06/18 03:14:09;;;;;;;1.98;0.30;;;;;;;18.45;100.00;100197.78;7390788;19;20015;-85
2022/06/18 03:16:36;;;;;;;0.20;0.20;;;;;;;18.40;100.00;100202.13;7391634;19;20021;-85
2022/06/18 03:19:06;;;;;;;1.08;0.20;;;;;;;18.36;100.00;100192.41;7391378;19;20015;-85
2022/06/18 03:21:42;;;;;;;0.85;0.52;;;;;;;18.38;100.00;100198.28;7390201;19;20017;-85
2022/06/18 03:24:09;;;;;;;0.10;0.10;;;;;;;18.38;100.00;100199.06;7391006;19;20074;-85
2022/06/18 03:26:36;;;;;;;0.98;0.43;;;;;;;18.38;100.00;100203.94;7390802;19;20038;-85
2022/06/18 03:29:07;;;;;;;3.70;0.50;;;;;;;18.24;100.00;100196.56;7392518;19;20033;-85
2022/06/18 03:31:35;;;;;;;1.02;0.30;;;;;;;18.19;100.00;100198.88;7390945;19;20011;-85
2022/06/18 03:34:02;;;;;;;0.10;0.00;;;;;;;18.17;100.00;100204.28;7390605;19;20018;-85
2022/06/18 03:36:29;;;;;;;1.05;0.43;;;;;;;18.19;100.00;100203.78;7391556;19;20022;-85
2022/06/18 03:38:57;;;;;;;0.38;0.38;;;;;;;18.18;100.00;100211.47;7393611;19;20013;-85
2022/06/18 03:41:24;;;;;;;3.38;0.63;;;;;;;18.16;100.00;100207.63;7391016;19;20492;-85
2022/06/18 03:43:55;;;;;;;0.35;0.30;;;;;;;18.16;100.00;100208.41;7389270;19;20030;-85
2022/06/18 03:46:22;;;;;;;0.10;0.10;;;;;;;18.18;100.00;100221.97;7391073;19;20025;-85
2022/06/18 03:49:08;;;;;;;6.38;1.08;;;;;;;18.14;100.00;100219.44;7391636;19;20011;-86
2022/06/18 03:51:36;;;;;;;0.82;0.30;;;;;;;18.14;100.00;100219.44;7390153;19;20010;-85
2022/06/18 03:54:03;;;;;;;0.10;0.10;;;;;;;18.08;100.00;100215.84;7396654;19;20019;-85
2022/06/18 03:56:31;;;;;;;2.17;0.20;;;;;;;18.09;100.00;100217.38;7396664;19;20011;-84
2022/06/18 03:58:59;;;;;;;2.78;0.40;;;;;;;18.05;100.00;100214.06;7401312;19;20029;-86
2022/06/18 04:01:31;;;;;;;0.10;0.10;;;;;;;18.07;100.00;100222.78;7397243;19;20049;-85
2022/06/18 04:04:01;;;;;;;0.30;0.10;;;;;;;18.05;100.00;100227.41;7396568;19;20021;-85
2022/06/18 04:06:35;;;;;;;1.73;0.25;;;;;;;18.03;100.00;100219.47;7397940;19;20011;-86
2022/06/18 04:09:11;;;;;;;2.55;0.45;;;;;;;18.06;100.00;100212.78;7396455;19;20017;-86
2022/06/18 04:11:38;;;;;;;0.38;0.30;;;;;;;18.05;100.00;100216.91;7397387;19;20500;-85
2022/06/18 04:14:04;;;;;;;0.10;0.10;;;;;;;18.03;100.00;100221.50;7395911;19;20014;-86
2022/06/18 04:16:41;;;;;;;0.82;0.30;;;;;;;17.98;100.00;100211.78;7397453;19;20014;-85
2022/06/18 04:19:13;;;;;;;7.03;0.65;;;;;;;17.95;100.00;100226.91;7401568;19;20027;-85
2022/06/18 04:21:40;;;;;;;0.38;0.30;;;;;;;17.91;100.00;100234.88;7397181;19;20022;-86
2022/06/18 04:24:06;;;;;;;0.20;0.20;;;;;;;17.91;100.00;100226.41;7393968;19;20014;-86
2022/06/18 04:26:35;;;;;;;3.85;0.82;;;;;;;17.86;100.00;100226.44;7396738;19;20048;-86
2022/06/18 04:29:01;;;;;;;5.68;0.55;;;;;;;17.87;100.00;100230.78;7395970;19;20006;-86
2022/06/18 04:31:28;;;;;;;1.55;0.70;;;;;;;17.85;100.00;100222.84;7396478;19;20015;-85
2022/06/18 04:33:55;;;;;;;0.22;0.22;;;;;;;17.82;100.00;100221.06;7397555;19;20086;-86
2022/06/18 04:36:49;;;;;;;0.95;0.43;;;;;;;17.85;100.00;100225.66;7396870;19;20334;-85
2022/06/18 04:39:30;;;;;;;0.47;0.35;;;;;;;17.79;100.00;100222.09;7399624;19;20007;-84
2022/06/18 04:42:12;;;;;;;0.17;0.17;;;;;;;17.80;100.00;100222.88;7397073;19;20019;-85
2022/06/18 04:44:40;;;;;;;0.30;0.20;;;;;;;17.85;100.00;100220.03;7394221;19;20018;-85
2022/06/18 04:47:29;;;;;;;0.85;0.77;;;;;;;17.81;100.00;100225.16;7396068;19;20019;-85
2022/06/18 04:49:58;;;;;;;2.22;0.88;;;;;;;17.86;100.00;100230.03;7395115;19;20013;-85
2022/06/18 04:52:25;;;;;;;0.75;0.20;;;;;;;17.88;100.00;100230.28;7396405;19;20019;-84
2022/06/18 04:54:57;;;;;;;5.22;0.30;;;;;;;17.81;100.00;100232.84;7395056;19;20010;-85
2022/06/18 04:57:24;;;;;;;0.20;0.20;;;;;;;17.81;100.00;100239.25;7395528;19;20369;-85
2022/06/18 04:59:50;;;;;;;0.68;0.30;;;;;;;17.80;100.00;100243.34;7396529;19;20075;-84
2022/06/18 05:02:24;;;;;;;0.32;0.20;;;;;;;17.81;100.00;100244.91;7395686;19;20003;-85
2022/06/18 05:05:16;;;;;;;6.88;1.05;;;;;;;17.76;100.00;100250.56;7395756;19;20018;-85
2022/06/18 05:07:59;;;;;;;2.50;0.82;;;;;;;17.72;100.00;100242.34;7395394;19;20030;-85
2022/06/18 05:10:45;;;;;;;1.50;0.80;;;;;;;17.73;100.00;100243.91;7394667;19;20010;-85
2022/06/18 05:13:18;;;;;;;1.20;0.25;;;;;;;17.73;100.00;100252.34;7395294;19;20019;-84
2022/06/18 05:15:47;;;;;;;0.75;0.40;;;;;;;17.70;100.00;100252.59;7394303;19;20392;-85
2022/06/18 05:18:17;;;;;;;1.45;0.75;;;;;;;17.72;100.00;100250.81;7397435;19;20010;-85
2022/06/18 05:20:51;;;;;;;4.50;0.45;;;;;;;17.70;100.00;100250.56;7394024;19;20006;-85
2022/06/18 05:23:20;;;;;;;1.38;0.70;;;;;;;17.71;100.00;100257.72;7399424;19;20046;-85
2022/06/18 05:25:51;;;;;;;1.13;0.38;;;;;;;17.74;100.00;100248.22;7393267;19;20018;-85
2022/06/18 05:28:17;;;;;;;2.13;0.40;;;;;;;17.74;100.00;100258.72;7395555;19;20491;-85
2022/06/18 05:30:43;;;;;;;0.77;0.25;;;;;;;17.77;100.00;100252.06;7397187;19;20022;-85
2022/06/18 05:33:10;;;;;;;10.52;0.60;;;;;;;17.72;100.00;100250.81;7394307;19;20038;-85
2022/06/18 05:35:42;;;;;;;2.33;0.20;;;;;;;17.68;100.00;100261.56;7394320;19;20044;-85
2022/06/18 05:38:14;;;;;;;4.38;0.52;;;;;;;17.66;100.00;100255.69;7395325;19;20040;-85
2022/06/18 05:40:40;;;;;;;4.80;0.65;;;;;;;17.65;100.00;100259.78;7395504;19;20357;-85
2022/06/18 05:43:07;;;;;;;4.90;0.75;;;;;;;17.64;100.00;100271.56;7394823;19;20086;-86
2022/06/18 05:45:33;;;;;;;1.83;0.57;;;;;;;17.63;100.00;100265.16;7392662;19;20029;-85
2022/06/18 05:47:59;;;;;;;12.40;0.85;;;;;;;17.65;100.00;100278.75;7395858;19;20015;-85
2022/06/18 05:50:26;;;;;;;6.60;0.63;;;;;;;17.66;100.00;100269.75;7393994;19;20464;-86
2022/06/18 05:52:52;;;;;;;13.25;1.33;;;;;;;17.70;100.00;100275.91;7395024;19;20021;-85
2022/06/18 05:55:37;;;;;;;0.57;0.20;;;;;;;17.73;100.00;100274.88;7394570;19;20030;-85
2022/06/18 05:58:15;;;;;;;8.07;1.65;;;;;;;17.87;100.00;100279.44;7395528;19;20003;-85
2022/06/18 06:00:45;;;;;;;10.65;0.73;;;;;;;17.91;100.00;100274.31;7395453;19;20035;-84
2022/06/18 06:03:11;;;;;;;16.17;0.75;;;;;;;17.87;100.00;100271.00;7393183;19;20011;-85
2022/06/18 06:05:38;;;;;;;0.60;0.40;;;;;;;17.89;100.00;100270.47;7393346;19;20472;-84
2022/06/18 06:08:05;;;;;;;3.88;0.90;;;;;;;17.95;100.00;100286.09;7394047;19;20026;-85
2022/06/18 06:13:22;;;;;;;13.53;0.77;;;;;;;18.00;100.00;100299.41;7394131;19;20472;-85
2022/06/18 06:15:49;;;;;;;1.88;0.80;;;;;;;17.95;100.00;100310.72;7390137;19;20083;-85
2022/06/18 06:18:17;;;;;;;2.13;0.10;;;;;;;18.03;100.00;100301.22;7394087;19;20365;-85
2022/06/18 06:20:46;;;;;;;7.15;2.08;;;;;;;18.05;100.00;100298.63;7393379;19;20452;-85
2022/06/18 06:23:13;;;;;;;1.02;0.63;;;;;;;18.07;100.00;100312.97;7396828;19;20017;-85
2022/06/18 06:25:41;;;;;;;5.28;0.20;;;;;;;18.07;100.00;100320.66;7391164;19;20022;-85
2022/06/18 06:28:12;;;;;;;5.38;0.55;;;;;;;18.07;100.00;100332.72;7393120;19;20018;-85
2022/06/18 06:30:38;;;;;;;6.72;0.30;;;;;;;18.06;100.00;100336.81;7393958;19;20035;-84
2022/06/18 06:33:05;;;;;;;2.92;1.17;;;;;;;18.11;100.00;100343.72;7394613;19;20029;-84
2022/06/18 06:35:31;;;;;;;5.38;0.55;;;;;;;18.07;100.00;100338.34;7393156;19;20579;-85
2022/06/18 06:37:57;;;;;;;10.00;1.15;;;;;;;18.12;100.00;100331.94;7395041;19;20014;-85
2022/06/18 06:40:24;;;;;;;2.80;0.80;;;;;;;17.89;100.00;100321.19;7394555;19;20523;-85
2022/06/18 06:42:51;;;;;;;1.15;0.55;;;;;;;17.99;100.00;100309.16;7395353;19;20446;-85
2022/06/18 06:45:23;;;;;;;6.97;0.75;;;;;;;18.25;100.00;100302.41;7392655;19;20026;-85
2022/06/18 06:47:50;;;;;;;4.18;0.73;;;;;;;18.34;100.00;100310.59;7393340;19;20031;-86
2022/06/18 06:50:18;;;;;;;3.33;0.47;;;;;;;18.16;100.00;100307.06;7397791;19;20034;-85
2022/06/18 06:52:45;;;;;;;2.17;0.70;;;;;;;18.23;100.00;100305.75;7393336;19;20594;-85
2022/06/18 06:58:01;;;;;;;4.13;0.38;;;;;;;18.43;100.00;100330.78;7395228;19;20365;-85
2022/06/18 07:00:27;;;;;;;1.08;0.43;;;;;;;18.50;100.00;100329.53;7400894;19;20015;-85
2022/06/18 07:02:53;;;;;;;0.65;0.30;;;;;;;18.70;100.00;100327.13;7392835;19;20099;-84
2022/06/18 07:05:19;;;;;;;5.03;1.05;;;;;;;18.76;100.00;100324.28;7392641;19;20014;-86
2022/06/18 07:07:46;;;;;;;7.00;0.77;;;;;;;18.70;100.00;100315.06;7395009;19;20022;-84
2022/06/18 07:10:12;;;;;;;10.35;0.55;;;;;;;18.79;100.00;100314.78;7399694;19;20085;-86
2022/06/18 07:12:38;;;;;;;4.47;0.55;;;;;;;18.76;100.00;100324.28;7395450;19;20015;-87
2022/06/18 07:15:06;;;;;;;5.40;1.00;;;;;;;18.75;100.00;100314.28;7390885;19;20014;-84
2022/06/18 07:17:33;;;;;;;3.92;0.47;;;;;;;18.83;100.00;100315.25;7394543;19;20011;-87
2022/06/18 07:19:59;;;;;;;3.75;0.70;;;;;;;18.82;100.00;100299.59;7395158;19;20082;-85
2022/06/18 07:22:25;;;;;;;5.47;0.80;;;;;;;18.89;100.00;100282.13;7393295;19;20014;-85
2022/06/18 07:24:52;;;;;;;10.68;0.98;;;;;;;18.97;100.00;100299.28;7389369;19;20035;-84
2022/06/18 07:27:18;;;;;;;2.80;1.00;;;;;;;19.03;100.00;100288.72;7395089;19;20014;-85
2022/06/18 07:29:45;;;;;;;2.38;0.73;;;;;;;19.11;100.00;100290.44;7408260;19;20094;-85
2022/06/18 07:32:14;;;;;;;3.30;0.60;;;;;;;19.20;100.00;100298.59;7405755;19;20094;-85
2022/06/18 07:34:41;;;;;;;8.48;0.90;;;;;;;19.31;100.00;100307.00;7406437;19;20027;-85
2022/06/18 07:37:07;;;;;;;7.72;0.30;;;;;;;19.35;100.00;100301.84;7413393;19;20016;-84
2022/06/18 07:39:34;;;;;;;1.80;0.50;;;;;;;19.37;100.00;100295.66;7413936;19;20015;-84
2022/06/18 07:42:01;;;;;;;3.05;0.60;;;;;;;19.43;100.00;100279.44;7415185;19;20018;-85
2022/06/18 07:44:28;;;;;;;5.50;0.60;;;;;;;19.37;100.00;100296.44;7408053;19;20025;-86
2022/06/18 07:47:03;;;;;;;3.15;0.52;;;;;;;19.37;100.00;100310.56;7413250;19;20484;-84
2022/06/18 07:49:30;;;;;;;4.40;1.15;;;;;;;19.33;100.00;100318.53;7406447;19;20457;-85
2022/06/18 07:51:56;;;;;;;3.08;0.17;;;;;;;19.40;100.00;100312.34;7405268;19;20046;-85
2022/06/18 07:54:23;;;;;;;0.45;0.40;;;;;;;19.43;100.00;100280.22;7403895;19;20597;-86
2022/06/18 07:56:50;;;;;;;0.77;0.60;;;;;;;19.46;100.00;100273.53;7402635;19;20017;-86
2022/06/18 07:59:23;;;;;;;1.10;0.30;;;;;;;19.56;100.00;100277.53;7405132;19;20014;-85
2022/06/18 08:01:49;;;;;;;3.35;0.45;;;;;;;19.72;100.00;100280.72;7401192;19;20019;-85
2022/06/18 08:04:16;;;;;;;1.90;0.15;;;;;;;19.75;100.00;100293.81;7401183;19;20014;-86
2022/06/18 08:06:42;;;;;;;0.45;0.30;;;;;;;19.76;100.00;100306.63;7402597;19;20019;-86
2022/06/18 08:09:08;;;;;;;6.00;0.90;;;;;;;19.66;100.00;100312.63;7400356;19;20015;-86
2022/06/18 08:11:36;;;;;;;1.33;0.43;;;;;;;19.61;100.00;100307.81;7401677;19;20086;-86
2022/06/18 08:14:02;;;;;;;1.48;0.32;;;;;;;19.57;100.00;100312.97;7399363;19;20018;-86
2022/06/18 08:16:28;;;;;;;3.20;0.25;;;;;;;19.49;100.00;100314.81;7400409;19;20453;-86
2022/06/18 08:18:54;;;;;;;5.55;0.60;;;;;;;19.40;100.00;100301.06;7399439;19;21217;-86
2022/06/18 08:21:29;;;;;;;3.72;0.32;;;;;;;19.39;100.00;100296.69;7399701;19;20018;-86
2022/06/18 08:24:01;;;;;;;8.65;0.40;;;;;;;19.47;100.00;100297.63;7402528;19;20011;-86
2022/06/18 08:26:27;;;;;;;0.32;0.32;;;;;;;19.61;100.00;100313.47;7399056;19;20114;-86
2022/06/18 08:28:54;;;;;;;0.60;0.20;;;;;;;19.55;100.00;100321.22;7398056;19;20019;-85
2022/06/18 08:31:20;;;;;;;1.00;0.20;;;;;;;19.40;100.00;100343.44;7397776;19;20014;-86
2022/06/18 08:33:47;;;;;;;0.40;0.10;;;;;;;19.22;100.00;100360.97;7399115;19;20015;-87
2022/06/18 08:36:15;;;;;;;1.27;0.30;;;;;;;19.09;100.00;100349.50;7399129;19;20019;-86
2022/06/18 08:38:45;;;;;;;1.88;0.40;;;;;;;19.02;100.00;100335.94;7400111;19;20017;-85
2022/06/18 08:41:38;;;;;;;1.43;0.23;;;;;;;19.06;100.00;100305.38;7405957;19;20007;-85
2022/06/18 08:44:13;;;;;;;5.43;0.10;;;;;;;19.10;100.00;100303.03;7403883;19;20035;-86
2022/06/18 08:47:01;;;;;;;4.53;0.20;;;;;;;19.05;100.00;100283.31;7408032;19;20044;-86
2022/06/18 08:49:30;;;;;;;1.58;0.60;;;;;;;18.97;100.00;100259.75;7403969;19;20022;-86
2022/06/18 08:52:46;;;;;;;1.33;0.95;;;;;;;19.04;100.00;100279.72;7398255;19;20014;-86
2022/06/18 08:55:47;;;;;;;4.80;0.35;;;;;;;19.09;100.00;100301.50;7393936;19;20369;-86
2022/06/18 08:58:42;;;;;;;0.22;0.20;;;;;;;18.84;100.00;100328.84;7395825;19;20473;-85
2022/06/18 09:01:22;;;;;;;5.60;0.13;;;;;;;18.63;100.00;100355.13;7397485;19;20074;-85
2022/06/18 09:04:04;;;;;;;4.07;0.10;;;;;;;18.33;100.00;100368.25;7396236;19;20465;-86
2022/06/18 09:06:55;;;;;;;1.55;0.22;;;;;;;18.15;100.00;100361.91;7397120;19;20022;-86
2022/06/18 09:09:40;;;;;;;;;;;;;;;18.18;100.00;100343.97;7394212;19;20011;-85
2022/06/18 09:12:15;;;;;;;2.13;0.30;;;;;;;18.17;100.00;100341.63;7394513;19;20241;-87
2022/06/18 09:14:48;;;;;;;3.17;0.65;;;;;;;18.15;100.00;100338.56;7396211;19;20031;-87
2022/06/18 09:17:29;;;;;;;2.95;0.30;;;;;;;18.22;100.00;100315.50;7394603;19;20014;-87
2022/06/18 09:20:01;;;;;;;1.77;0.52;;;;;;;18.38;100.00;100288.53;7393444;19;20017;-87
2022/06/18 09:22:30;;;;;;;5.05;0.50;;;;;;;18.41;100.00;100282.59;7396028;19;20015;-87
2022/06/18 09:25:07;;;;;;;0.65;0.10;;;;;;;18.56;100.00;100283.06;7395015;19;20474;-87
2022/06/18 09:27:43;;;;;;;0.55;0.20;;;;;;;18.81;100.00;100281.94;7395596;19;20018;-86
2022/06/18 09:30:42;;;;;;;2.03;0.38;;;;;;;18.95;100.00;100279.28;7398353;19;20015;-86
2022/06/18 09:33:14;;;;;;;0.90;0.30;;;;;;;18.88;100.00;100272.13;7395506;19;20054;-86
2022/06/18 09:36:06;;;;;;;0.73;0.17;;;;;;;18.90;100.00;100278.81;7395817;19;20082;-86
2022/06/18 09:38:51;;;;;;;0.38;0.20;;;;;;;18.82;100.00;100282.69;7396133;19;20026;-86
2022/06/18 09:41:24;;;;;;;6.43;0.82;;;;;;;18.69;100.00;100286.09;7399966;19;20055;-86
2022/06/18 09:44:18;;;;;;;0.70;0.40;;;;;;;18.49;100.00;100300.56;7395439;19;20037;-86
2022/06/18 09:46:52;;;;;;;0.17;0.08;;;;;;;18.33;100.00;100318.28;7396655;19;20017;-87
2022/06/18 09:49:18;;;;;;;1.55;0.65;;;;;;;18.24;100.00;100317.78;7392658;19;20021;-87
2022/06/18 09:51:58;;;;;;;0.20;0.20;;;;;;;18.11;100.00;100295.78;7399053;19;20078;-86
2022/06/18 09:54:30;;;;;;;1.85;0.73;;;;;;;18.02;100.00;100294.03;7395746;19;20010;-86
2022/06/18 09:56:59;;;;;;;0.68;0.32;;;;;;;17.99;100.00;100286.63;7393941;19;20026;-86
2022/06/18 10:00:06;;;;;;;0.50;0.43;;;;;;;18.06;100.00;100286.06;7395541;19;20010;-87
2022/06/18 10:02:38;;;;;;;0.63;0.25;;;;;;;18.24;100.00;100279.09;7395013;19;20021;-86
2022/06/18 10:07:59;;;;;;;4.40;0.85;;;;;;;18.24;100.00;100283.94;7394384;19;20043;-87
2022/06/18 10:10:28;;;;;;;2.33;0.57;;;;;;;18.14;100.00;100267.34;7396215;19;20011;-87
2022/06/18 10:12:58;;;;;;;0.30;0.30;;;;;;;18.16;100.00;100256.31;7396021;19;20034;-85
2022/06/18 10:15:26;;;;;;;2.65;1.00;;;;;;;18.10;100.00;100246.34;7393367;19;20052;-86
2022/06/18 10:18:10;;;;;;;0.20;0.20;;;;;;;18.03;100.00;100244.84;7393872;19;20015;-86
2022/06/18 10:21:14;;;;;;;4.10;0.38;;;;;;;17.89;100.00;100245.13;7395265;19;20010;-86
2022/06/18 10:23:49;;;;;;;0.40;0.20;;;;;;;17.80;100.00;100223.63;7389988;19;20414;-86
2022/06/18 10:26:39;;;;;;;8.60;1.02;;;;;;;17.89;100.00;100223.34;7391551;19;20031;-87
2022/06/18 10:29:14;;;;;;;0.82;0.20;;;;;;;18.07;100.00;100213.56;7393954;19;20015;-87
2022/06/18 10:31:59;;;;;;;0.30;0.30;;;;;;;18.33;100.00;100219.59;7401059;19;20477;-87
2022/06/18 10:34:31;;;;;;;0.95;0.20;;;;;;;18.55;100.00;100218.72;7394484;19;20493;-87
2022/06/18 10:37:35;;;;;;;1.35;0.55;;;;;;;18.76;100.00;100228.34;7394785;19;20326;-87
2022/06/18 10:40:19;;;;;;;0.10;0.10;;;;;;;18.90;100.00;100227.22;7392948;19;20014;-87
2022/06/18 10:43:12;;;;;;;0.47;0.20;;;;;;;18.85;100.00;100237.25;7394402;19;20019;-87
2022/06/18 10:45:48;;;;;;;1.98;0.40;;;;;;;18.86;100.00;100249.31;7393287;19;20465;-87
2022/06/18 10:48:22;;;;;;;0.70;0.05;;;;;;;19.10;100.00;100245.81;7394487;19;20025;-87
2022/06/18 10:50:54;;;;;;;2.58;0.52;;;;;;;19.17;100.00;100242.41;7395288;19;20422;-88
2022/06/18 10:53:24;;;;;;;0.70;0.30;;;;;;;19.37;100.00;100250.47;7393128;19;20019;-87
2022/06/18 10:56:04;;;;;;;3.60;0.13;;;;;;;19.74;100.00;100258.34;7392579;19;20085;-87
2022/06/18 10:58:30;;;;;;;1.85;0.65;;;;;;;19.85;100.00;100263.91;7393239;19;20010;-88
2022/06/18 11:01:13;;;;;;;2.45;0.45;;;;;;;19.86;100.00;100290.88;7394813;19;20014;-88
2022/06/18 11:03:39;;;;;;;1.65;0.10;;;;;;;19.78;100.00;100301.22;7402039;19;20461;-88
2022/06/18 11:06:13;;;;;;;1.88;0.25;;;;;;;19.67;100.00;100300.03;7401142;19;20015;-86
2022/06/18 11:08:53;;;;;;;0.47;0.22;;;;;;;19.63;100.00;100299.56;7400065;19;20037;-85
2022/06/18 11:11:24;;;;;;;0.95;0.52;;;;;;;19.77;100.00;100289.16;7404921;19;20092;-86
2022/06/18 11:13:51;;;;;;;17.42;2.40;;;;;;;20.09;100.00;100295.75;7400563;19;20362;-85
2022/06/18 11:16:22;;;;;;;1.75;0.32;;;;;;;20.26;100.00;100299.19;7401954;19;20011;-86
2022/06/18 11:18:50;;;;;;;4.85;0.25;;;;;;;20.72;100.00;100295.28;7402186;19;20014;-86
2022/06/18 11:21:29;;;;;;;2.55;0.45;;;;;;;21.20;100.00;100262.41;7403511;19;20031;-85
2022/06/18 11:24:18;;;;;;;1.70;0.20;;;;;;;21.28;100.00;100264.06;7405293;19;20026;-85
2022/06/18 11:26:56;;;;;;;0.40;0.20;;;;;;;21.16;100.00;100276.13;7400268;19;20003;-87
2022/06/18 11:29:25;;;;;;;1.55;0.50;;;;;;;21.04;100.00;100289.69;7399689;19;20018;-87
2022/06/18 11:31:55;;;;;;;0.98;0.40;;;;;;;20.90;100.00;100288.06;7401229;19;20102;-88
2022/06/18 11:34:26;;;;;;;0.10;0.10;;;;;;;20.79;100.00;100294.63;7401801;19;20018;-86
2022/06/18 11:36:53;;;;;;;;;;;;;;;20.79;100.00;100288.25;7400988;19;20325;-85
2022/06/18 11:39:38;;;;;;;2.90;0.17;;;;;;;20.93;100.00;100287.75;7399058;19;19938;-87
2022/06/18 11:42:11;;;;;;;5.10;0.65;;;;;;;21.04;100.00;100275.53;7401750;19;20464;-87
2022/06/18 11:44:49;;;;;;;4.65;0.32;;;;;;;21.23;100.00;100270.59;7397387;19;20010;-86
2022/06/18 11:47:24;;;;;;;5.38;0.17;;;;;;;21.63;100.00;100274.31;7400174;19;20011;-88
2022/06/18 11:49:58;;;;;;;8.15;0.30;;;;;;;21.80;100.00;100277.59;7400775;19;20021;-88
2022/06/18 11:52:37;;;;;;;1.77;0.55;;;;;;;21.94;100.00;100282.00;7403919;19;20014;-89
2022/06/18 11:55:22;;;;;;;0.10;0.10;;;;;;;21.87;100.00;100283.41;7397442;19;20335;-89